sensor_id;sensor_type;location;lat;lon;timestamp;P1;durP1;ratioP1;P2;durP2;ratioP2
34573;SDS011;20809;49.594;8.734;2023-02-24T00:02:23;27.77;;;14.32;;
34573;SDS011;20809;49.594;8.734;2023-02-24T00:05:24;23.58;;;13.50;;
34573;SDS011;20809;49.594;8.734;2023-02-24T00:08:24;24.85;;;13.90;;
34573;SDS011;20809;49.594;8.734;2023-02-24T00:11:25;24.70;;;14.65;;
34573;SDS011;20809;49.594;8.734;2023-02-24T00:17:29;27.08;;;14.45;;
34573;SDS011;20809;49.594;8.734;2023-02-24T00:20:30;23.10;;;13.75;;
34573;SDS011;20809;49.594;8.734;2023-02-24T00:23:35;24.95;;;14.45;;
34573;SDS011;20809;49.594;8.734;2023-02-24T00:26:37;26.50;;;15.98;;
34573;SDS011;20809;49.594;8.734;2023-02-24T00:29:39;29.00;;;14.98;;
34573;SDS011;20809;49.594;8.734;2023-02-24T00:32:40;30.95;;;16.50;;
34573;SDS011;20809;49.594;8.734;2023-02-24T00:35:41;24.30;;;14.98;;
34573;SDS011;20809;49.594;8.734;2023-02-24T00:38:42;26.23;;;14.85;;
34573;SDS011;20809;49.594;8.734;2023-02-24T00:41:46;28.77;;;15.70;;
34573;SDS011;20809;49.594;8.734;2023-02-24T00:44:46;28.50;;;14.93;;
34573;SDS011;20809;49.594;8.734;2023-02-24T00:47:47;31.20;;;15.80;;
34573;SDS011;20809;49.594;8.734;2023-02-24T00:50:48;29.58;;;15.68;;
34573;SDS011;20809;49.594;8.734;2023-02-24T00:53:52;30.98;;;16.08;;
34573;SDS011;20809;49.594;8.734;2023-02-24T00:56:57;32.65;;;17.45;;
34573;SDS011;20809;49.594;8.734;2023-02-24T00:59:58;30.55;;;17.23;;
34573;SDS011;20809;49.594;8.734;2023-02-24T01:02:59;29.75;;;15.57;;
34573;SDS011;20809;49.594;8.734;2023-02-24T01:06:00;31.48;;;17.83;;
34573;SDS011;20809;49.594;8.734;2023-02-24T01:09:02;34.22;;;17.42;;
34573;SDS011;20809;49.594;8.734;2023-02-24T01:12:07;33.65;;;15.93;;
34573;SDS011;20809;49.594;8.734;2023-02-24T01:15:28;34.15;;;17.92;;
34573;SDS011;20809;49.594;8.734;2023-02-24T01:18:29;31.02;;;16.98;;
34573;SDS011;20809;49.594;8.734;2023-02-24T01:21:30;32.42;;;16.98;;
34573;SDS011;20809;49.594;8.734;2023-02-24T01:24:31;31.50;;;17.15;;
34573;SDS011;20809;49.594;8.734;2023-02-24T01:27:34;30.52;;;17.40;;
34573;SDS011;20809;49.594;8.734;2023-02-24T01:30:39;30.90;;;16.52;;
34573;SDS011;20809;49.594;8.734;2023-02-24T01:33:42;32.92;;;17.17;;
34573;SDS011;20809;49.594;8.734;2023-02-24T01:36:45;34.25;;;16.38;;
34573;SDS011;20809;49.594;8.734;2023-02-24T01:42:47;33.03;;;16.03;;
34573;SDS011;20809;49.594;8.734;2023-02-24T01:45:48;29.75;;;16.83;;
34573;SDS011;20809;49.594;8.734;2023-02-24T01:48:50;31.90;;;16.25;;
34573;SDS011;20809;49.594;8.734;2023-02-24T01:54:59;35.90;;;19.02;;
34573;SDS011;20809;49.594;8.734;2023-02-24T01:59:05;32.97;;;17.08;;
34573;SDS011;20809;49.594;8.734;2023-02-24T02:02:06;33.95;;;16.70;;
34573;SDS011;20809;49.594;8.734;2023-02-24T02:05:09;34.58;;;16.58;;
34573;SDS011;20809;49.594;8.734;2023-02-24T02:08:10;35.00;;;17.65;;
34573;SDS011;20809;49.594;8.734;2023-02-24T02:11:14;30.30;;;16.15;;
34573;SDS011;20809;49.594;8.734;2023-02-24T02:14:25;31.23;;;15.68;;
34573;SDS011;20809;49.594;8.734;2023-02-24T02:34:34;29.27;;;14.90;;
34573;SDS011;20809;49.594;8.734;2023-02-24T02:41:43;31.05;;;15.02;;
34573;SDS011;20809;49.594;8.734;2023-02-24T02:45:17;31.40;;;16.75;;
34573;SDS011;20809;49.594;8.734;2023-02-24T02:48:26;33.90;;;16.58;;
34573;SDS011;20809;49.594;8.734;2023-02-24T02:51:52;31.52;;;15.85;;
34573;SDS011;20809;49.594;8.734;2023-02-24T02:58:33;29.45;;;14.70;;
34573;SDS011;20809;49.594;8.734;2023-02-24T03:01:37;33.10;;;15.90;;
34573;SDS011;20809;49.594;8.734;2023-02-24T03:04:53;34.25;;;16.23;;
34573;SDS011;20809;49.594;8.734;2023-02-24T03:07:57;29.52;;;16.27;;
34573;SDS011;20809;49.594;8.734;2023-02-24T03:11:05;30.40;;;14.80;;
34573;SDS011;20809;49.594;8.734;2023-02-24T03:14:11;30.88;;;15.98;;
34573;SDS011;20809;49.594;8.734;2023-02-24T03:17:17;31.27;;;15.00;;
34573;SDS011;20809;49.594;8.734;2023-02-24T03:20:40;28.75;;;15.63;;
34573;SDS011;20809;49.594;8.734;2023-02-24T03:23:51;32.70;;;15.32;;
34573;SDS011;20809;49.594;8.734;2023-02-24T03:27:12;27.40;;;14.73;;
34573;SDS011;20809;49.594;8.734;2023-02-24T03:30:28;30.33;;;15.30;;
34573;SDS011;20809;49.594;8.734;2023-02-24T03:33:43;30.95;;;16.15;;
34573;SDS011;20809;49.594;8.734;2023-02-24T03:36:50;36.17;;;16.60;;
34573;SDS011;20809;49.594;8.734;2023-02-24T03:39:53;35.05;;;16.55;;
34573;SDS011;20809;49.594;8.734;2023-02-24T03:43:31;34.80;;;16.15;;
34573;SDS011;20809;49.594;8.734;2023-02-24T03:46:36;33.00;;;15.07;;
34573;SDS011;20809;49.594;8.734;2023-02-24T03:49:38;34.45;;;16.67;;
34573;SDS011;20809;49.594;8.734;2023-02-24T03:56:27;31.38;;;15.10;;
34573;SDS011;20809;49.594;8.734;2023-02-24T03:59:36;27.63;;;15.40;;
34573;SDS011;20809;49.594;8.734;2023-02-24T04:02:41;33.72;;;15.23;;
34573;SDS011;20809;49.594;8.734;2023-02-24T04:05:50;33.63;;;16.35;;
34573;SDS011;20809;49.594;8.734;2023-02-24T04:09:03;29.58;;;14.85;;
34573;SDS011;20809;49.594;8.734;2023-02-24T04:12:25;32.60;;;16.73;;
34573;SDS011;20809;49.594;8.734;2023-02-24T04:18:46;40.33;;;17.15;;
34573;SDS011;20809;49.594;8.734;2023-02-24T04:21:50;32.22;;;14.52;;
34573;SDS011;20809;49.594;8.734;2023-02-24T04:24:52;33.58;;;15.88;;
34573;SDS011;20809;49.594;8.734;2023-02-24T04:27:59;34.92;;;16.27;;
34573;SDS011;20809;49.594;8.734;2023-02-24T04:31:03;33.60;;;15.63;;
34573;SDS011;20809;49.594;8.734;2023-02-24T04:34:10;35.05;;;17.38;;
34573;SDS011;20809;49.594;8.734;2023-02-24T04:37:19;35.38;;;15.32;;
34573;SDS011;20809;49.594;8.734;2023-02-24T04:40:22;43.75;;;16.45;;
34573;SDS011;20809;49.594;8.734;2023-02-24T04:43:23;33.38;;;16.33;;
34573;SDS011;20809;49.594;8.734;2023-02-24T04:46:25;35.53;;;16.95;;
34573;SDS011;20809;49.594;8.734;2023-02-24T04:49:26;38.58;;;18.38;;
34573;SDS011;20809;49.594;8.734;2023-02-24T04:55:29;36.27;;;16.70;;
34573;SDS011;20809;49.594;8.734;2023-02-24T04:58:32;43.25;;;18.92;;
34573;SDS011;20809;49.594;8.734;2023-02-24T05:01:35;44.85;;;21.25;;
34573;SDS011;20809;49.594;8.734;2023-02-24T05:04:39;46.40;;;19.58;;
34573;SDS011;20809;49.594;8.734;2023-02-24T05:07:42;42.95;;;19.02;;
34573;SDS011;20809;49.594;8.734;2023-02-24T05:10:46;43.05;;;17.58;;
34573;SDS011;20809;49.594;8.734;2023-02-24T05:13:48;39.85;;;18.48;;
34573;SDS011;20809;49.594;8.734;2023-02-24T05:16:50;40.08;;;18.17;;
34573;SDS011;20809;49.594;8.734;2023-02-24T05:19:51;44.47;;;19.58;;
34573;SDS011;20809;49.594;8.734;2023-02-24T05:23:11;47.30;;;21.40;;
34573;SDS011;20809;49.594;8.734;2023-02-24T05:26:14;46.03;;;20.88;;
34573;SDS011;20809;49.594;8.734;2023-02-24T05:29:16;50.50;;;20.98;;
34573;SDS011;20809;49.594;8.734;2023-02-24T05:32:18;42.00;;;19.95;;
34573;SDS011;20809;49.594;8.734;2023-02-24T05:35:19;46.50;;;19.65;;
34573;SDS011;20809;49.594;8.734;2023-02-24T05:38:19;43.30;;;19.80;;
34573;SDS011;20809;49.594;8.734;2023-02-24T05:41:23;50.67;;;22.67;;
34573;SDS011;20809;49.594;8.734;2023-02-24T05:44:31;42.72;;;18.88;;
34573;SDS011;20809;49.594;8.734;2023-02-24T05:47:35;42.85;;;19.73;;
34573;SDS011;20809;49.594;8.734;2023-02-24T05:50:40;42.60;;;21.50;;
34573;SDS011;20809;49.594;8.734;2023-02-24T05:53:54;40.75;;;19.05;;
34573;SDS011;20809;49.594;8.734;2023-02-24T05:57:17;51.35;;;20.63;;
34573;SDS011;20809;49.594;8.734;2023-02-24T06:00:27;54.25;;;20.85;;
34573;SDS011;20809;49.594;8.734;2023-02-24T06:03:29;46.88;;;19.40;;
34573;SDS011;20809;49.594;8.734;2023-02-24T06:06:35;46.35;;;20.58;;
34573;SDS011;20809;49.594;8.734;2023-02-24T06:09:40;52.35;;;23.08;;
34573;SDS011;20809;49.594;8.734;2023-02-24T06:12:45;47.63;;;20.17;;
34573;SDS011;20809;49.594;8.734;2023-02-24T06:15:53;45.50;;;20.08;;
34573;SDS011;20809;49.594;8.734;2023-02-24T06:18:56;47.53;;;20.52;;
34573;SDS011;20809;49.594;8.734;2023-02-24T06:21:59;50.40;;;20.55;;
34573;SDS011;20809;49.594;8.734;2023-02-24T06:25:03;40.50;;;20.30;;
34573;SDS011;20809;49.594;8.734;2023-02-24T06:28:05;48.80;;;19.85;;
34573;SDS011;20809;49.594;8.734;2023-02-24T06:31:06;47.25;;;20.48;;
34573;SDS011;20809;49.594;8.734;2023-02-24T06:34:08;44.38;;;19.50;;
34573;SDS011;20809;49.594;8.734;2023-02-24T06:37:11;46.80;;;19.88;;
34573;SDS011;20809;49.594;8.734;2023-02-24T06:40:15;51.42;;;21.40;;
34573;SDS011;20809;49.594;8.734;2023-02-24T06:43:18;47.67;;;19.98;;
34573;SDS011;20809;49.594;8.734;2023-02-24T06:46:21;45.00;;;19.85;;
34573;SDS011;20809;49.594;8.734;2023-02-24T06:49:26;44.83;;;18.33;;
34573;SDS011;20809;49.594;8.734;2023-02-24T06:52:30;43.55;;;21.02;;
34573;SDS011;20809;49.594;8.734;2023-02-24T06:55:32;45.20;;;20.00;;
34573;SDS011;20809;49.594;8.734;2023-02-24T06:58:35;43.00;;;18.63;;
34573;SDS011;20809;49.594;8.734;2023-02-24T07:01:38;44.50;;;19.40;;
34573;SDS011;20809;49.594;8.734;2023-02-24T07:04:47;42.72;;;19.20;;
34573;SDS011;20809;49.594;8.734;2023-02-24T07:07:49;40.33;;;18.58;;
34573;SDS011;20809;49.594;8.734;2023-02-24T07:10:56;45.88;;;18.95;;
34573;SDS011;20809;49.594;8.734;2023-02-24T07:13:59;41.55;;;18.42;;
34573;SDS011;20809;49.594;8.734;2023-02-24T07:17:05;43.15;;;19.80;;
34573;SDS011;20809;49.594;8.734;2023-02-24T07:20:09;40.47;;;19.27;;
34573;SDS011;20809;49.594;8.734;2023-02-24T07:23:27;40.03;;;19.55;;
34573;SDS011;20809;49.594;8.734;2023-02-24T07:26:33;38.75;;;16.67;;
34573;SDS011;20809;49.594;8.734;2023-02-24T07:29:41;39.60;;;18.63;;
34573;SDS011;20809;49.594;8.734;2023-02-24T07:32:44;37.15;;;17.02;;
34573;SDS011;20809;49.594;8.734;2023-02-24T07:35:48;42.97;;;19.08;;
34573;SDS011;20809;49.594;8.734;2023-02-24T07:38:53;41.42;;;18.92;;
34573;SDS011;20809;49.594;8.734;2023-02-24T07:42:04;40.65;;;18.10;;
34573;SDS011;20809;49.594;8.734;2023-02-24T07:45:09;37.38;;;18.00;;
34573;SDS011;20809;49.594;8.734;2023-02-24T07:48:13;42.38;;;18.95;;
34573;SDS011;20809;49.594;8.734;2023-02-24T07:51:18;43.90;;;20.08;;
34573;SDS011;20809;49.594;8.734;2023-02-24T07:54:23;31.25;;;15.60;;
34573;SDS011;20809;49.594;8.734;2023-02-24T07:57:30;36.95;;;16.33;;
34573;SDS011;20809;49.594;8.734;2023-02-24T08:00:36;38.60;;;17.95;;
34573;SDS011;20809;49.594;8.734;2023-02-24T08:03:59;34.75;;;16.80;;
34573;SDS011;20809;49.594;8.734;2023-02-24T08:07:07;37.58;;;17.90;;
34573;SDS011;20809;49.594;8.734;2023-02-24T08:10:13;35.00;;;17.10;;
34573;SDS011;20809;49.594;8.734;2023-02-24T08:13:25;30.73;;;15.70;;
34573;SDS011;20809;49.594;8.734;2023-02-24T08:16:37;33.40;;;17.90;;
34573;SDS011;20809;49.594;8.734;2023-02-24T08:19:49;34.03;;;17.33;;
34573;SDS011;20809;49.594;8.734;2023-02-24T08:23:12;32.30;;;15.98;;
34573;SDS011;20809;49.594;8.734;2023-02-24T08:26:14;30.08;;;17.17;;
34573;SDS011;20809;49.594;8.734;2023-02-24T08:29:18;29.73;;;16.30;;
34573;SDS011;20809;49.594;8.734;2023-02-24T08:32:41;26.85;;;15.25;;
34573;SDS011;20809;49.594;8.734;2023-02-24T08:35:49;35.67;;;17.05;;
34573;SDS011;20809;49.594;8.734;2023-02-24T08:39:01;30.75;;;16.00;;
34573;SDS011;20809;49.594;8.734;2023-02-24T08:42:06;31.17;;;17.55;;
34573;SDS011;20809;49.594;8.734;2023-02-24T08:45:14;31.35;;;15.52;;
34573;SDS011;20809;49.594;8.734;2023-02-24T08:48:21;31.17;;;16.20;;
34573;SDS011;20809;49.594;8.734;2023-02-24T08:51:37;36.40;;;18.60;;
34573;SDS011;20809;49.594;8.734;2023-02-24T08:54:43;32.28;;;17.52;;
34573;SDS011;20809;49.594;8.734;2023-02-24T08:57:50;33.47;;;17.80;;
34573;SDS011;20809;49.594;8.734;2023-02-24T09:00:57;33.33;;;16.48;;
34573;SDS011;20809;49.594;8.734;2023-02-24T09:04:01;34.20;;;17.92;;
34573;SDS011;20809;49.594;8.734;2023-02-24T09:07:06;27.95;;;15.45;;
34573;SDS011;20809;49.594;8.734;2023-02-24T09:10:17;29.23;;;16.02;;
34573;SDS011;20809;49.594;8.734;2023-02-24T09:13:20;28.00;;;15.43;;
34573;SDS011;20809;49.594;8.734;2023-02-24T09:16:23;29.63;;;15.10;;
34573;SDS011;20809;49.594;8.734;2023-02-24T09:19:25;30.98;;;16.00;;
34573;SDS011;20809;49.594;8.734;2023-02-24T09:22:50;30.80;;;17.73;;
34573;SDS011;20809;49.594;8.734;2023-02-24T09:26:08;29.23;;;16.42;;
34573;SDS011;20809;49.594;8.734;2023-02-24T09:29:13;30.55;;;16.50;;
34573;SDS011;20809;49.594;8.734;2023-02-24T09:32:37;26.38;;;14.90;;
34573;SDS011;20809;49.594;8.734;2023-02-24T09:35:39;31.50;;;15.90;;
34573;SDS011;20809;49.594;8.734;2023-02-24T09:38:43;27.13;;;15.20;;
34573;SDS011;20809;49.594;8.734;2023-02-24T09:41:59;30.58;;;15.80;;
34573;SDS011;20809;49.594;8.734;2023-02-24T09:45:10;26.58;;;16.15;;
34573;SDS011;20809;49.594;8.734;2023-02-24T09:48:31;24.63;;;15.13;;
34573;SDS011;20809;49.594;8.734;2023-02-24T09:51:45;25.73;;;14.27;;
34573;SDS011;20809;49.594;8.734;2023-02-24T09:55:00;28.02;;;16.58;;
34573;SDS011;20809;49.594;8.734;2023-02-24T09:58:26;27.30;;;16.23;;
34573;SDS011;20809;49.594;8.734;2023-02-24T10:01:49;26.92;;;16.33;;
34573;SDS011;20809;49.594;8.734;2023-02-24T10:05:08;27.50;;;16.50;;
34573;SDS011;20809;49.594;8.734;2023-02-24T10:08:21;30.85;;;18.17;;
34573;SDS011;20809;49.594;8.734;2023-02-24T10:11:38;27.95;;;17.58;;
34573;SDS011;20809;49.594;8.734;2023-02-24T10:14:57;28.80;;;16.05;;
34573;SDS011;20809;49.594;8.734;2023-02-24T10:18:44;27.33;;;17.48;;
34573;SDS011;20809;49.594;8.734;2023-02-24T10:22:15;28.45;;;15.48;;
34573;SDS011;20809;49.594;8.734;2023-02-24T10:31:44;29.35;;;17.30;;
34573;SDS011;20809;49.594;8.734;2023-02-24T10:35:00;27.73;;;16.98;;
34573;SDS011;20809;49.594;8.734;2023-02-24T10:38:02;30.13;;;18.48;;
34573;SDS011;20809;49.594;8.734;2023-02-24T10:41:07;30.58;;;19.73;;
34573;SDS011;20809;49.594;8.734;2023-02-24T10:44:09;28.48;;;16.63;;
34573;SDS011;20809;49.594;8.734;2023-02-24T10:47:15;34.53;;;18.38;;
34573;SDS011;20809;49.594;8.734;2023-02-24T10:50:38;38.40;;;19.27;;
34573;SDS011;20809;49.594;8.734;2023-02-24T10:53:50;33.28;;;19.33;;
34573;SDS011;20809;49.594;8.734;2023-02-24T10:57:21;31.55;;;18.95;;
34573;SDS011;20809;49.594;8.734;2023-02-24T11:00:37;32.55;;;18.38;;
34573;SDS011;20809;49.594;8.734;2023-02-24T11:04:13;30.38;;;16.65;;
34573;SDS011;20809;49.594;8.734;2023-02-24T11:07:32;28.95;;;17.38;;
34573;SDS011;20809;49.594;8.734;2023-02-24T11:10:44;29.00;;;17.63;;
34573;SDS011;20809;49.594;8.734;2023-02-24T11:14:13;32.50;;;18.10;;
34573;SDS011;20809;49.594;8.734;2023-02-24T11:17:35;32.83;;;18.58;;
34573;SDS011;20809;49.594;8.734;2023-02-24T11:20:46;34.55;;;18.38;;
34573;SDS011;20809;49.594;8.734;2023-02-24T11:23:57;32.35;;;18.88;;
34573;SDS011;20809;49.594;8.734;2023-02-24T11:27:02;30.65;;;17.55;;
34573;SDS011;20809;49.594;8.734;2023-02-24T11:33:35;33.90;;;19.20;;
34573;SDS011;20809;49.594;8.734;2023-02-24T11:36:48;30.02;;;16.40;;
34573;SDS011;20809;49.594;8.734;2023-02-24T11:40:11;33.45;;;18.88;;
34573;SDS011;20809;49.594;8.734;2023-02-24T11:43:23;28.13;;;16.40;;
34573;SDS011;20809;49.594;8.734;2023-02-24T11:46:47;30.65;;;16.75;;
34573;SDS011;20809;49.594;8.734;2023-02-24T11:50:03;34.25;;;18.15;;
34573;SDS011;20809;49.594;8.734;2023-02-24T11:53:33;28.83;;;17.30;;
34573;SDS011;20809;49.594;8.734;2023-02-24T11:56:40;32.25;;;19.08;;
34573;SDS011;20809;49.594;8.734;2023-02-24T12:00:32;28.60;;;16.20;;
34573;SDS011;20809;49.594;8.734;2023-02-24T12:23:08;29.88;;;17.70;;
34573;SDS011;20809;49.594;8.734;2023-02-24T12:26:32;27.52;;;15.52;;
34573;SDS011;20809;49.594;8.734;2023-02-24T12:33:57;29.42;;;16.60;;
34573;SDS011;20809;49.594;8.734;2023-02-24T12:41:07;34.22;;;17.90;;
34573;SDS011;20809;49.594;8.734;2023-02-24T12:44:30;31.77;;;17.52;;
34573;SDS011;20809;49.594;8.734;2023-02-24T12:51:20;30.35;;;16.13;;
34573;SDS011;20809;49.594;8.734;2023-02-24T12:54:39;29.52;;;16.77;;
34573;SDS011;20809;49.594;8.734;2023-02-24T12:58:01;29.85;;;17.55;;
34573;SDS011;20809;49.594;8.734;2023-02-24T13:08:09;27.70;;;15.13;;
34573;SDS011;20809;49.594;8.734;2023-02-24T13:14:52;30.70;;;16.15;;
34573;SDS011;20809;49.594;8.734;2023-02-24T13:17:56;26.92;;;15.13;;
34573;SDS011;20809;49.594;8.734;2023-02-24T13:24:19;26.80;;;14.02;;
34573;SDS011;20809;49.594;8.734;2023-02-24T13:27:26;25.95;;;14.35;;
34573;SDS011;20809;49.594;8.734;2023-02-24T13:30:40;22.73;;;13.32;;
34573;SDS011;20809;49.594;8.734;2023-02-24T13:33:43;24.77;;;13.85;;
34573;SDS011;20809;49.594;8.734;2023-02-24T13:36:48;25.80;;;13.68;;
34573;SDS011;20809;49.594;8.734;2023-02-24T13:39:51;29.25;;;16.52;;
34573;SDS011;20809;49.594;8.734;2023-02-24T13:46:01;23.23;;;12.55;;
34573;SDS011;20809;49.594;8.734;2023-02-24T13:55:52;21.73;;;11.60;;
34573;SDS011;20809;49.594;8.734;2023-02-24T13:59:18;24.92;;;12.93;;
34573;SDS011;20809;49.594;8.734;2023-02-24T14:02:35;18.52;;;10.73;;
34573;SDS011;20809;49.594;8.734;2023-02-24T14:05:43;19.15;;;11.70;;
34573;SDS011;20809;49.594;8.734;2023-02-24T14:08:50;22.58;;;11.82;;
34573;SDS011;20809;49.594;8.734;2023-02-24T14:11:59;15.98;;;9.15;;
34573;SDS011;20809;49.594;8.734;2023-02-24T14:15:11;17.40;;;9.25;;
34573;SDS011;20809;49.594;8.734;2023-02-24T14:18:20;19.80;;;9.30;;
34573;SDS011;20809;49.594;8.734;2023-02-24T14:21:31;17.63;;;9.70;;
34573;SDS011;20809;49.594;8.734;2023-02-24T14:24:37;17.85;;;10.02;;
34573;SDS011;20809;49.594;8.734;2023-02-24T14:27:44;18.35;;;9.32;;
34573;SDS011;20809;49.594;8.734;2023-02-24T14:30:53;17.33;;;8.77;;
34573;SDS011;20809;49.594;8.734;2023-02-24T14:34:01;16.58;;;8.60;;
34573;SDS011;20809;49.594;8.734;2023-02-24T14:37:05;16.27;;;8.60;;
34573;SDS011;20809;49.594;8.734;2023-02-24T14:40:12;12.90;;;6.43;;
34573;SDS011;20809;49.594;8.734;2023-02-24T14:43:16;15.70;;;8.55;;
34573;SDS011;20809;49.594;8.734;2023-02-24T14:46:18;14.18;;;7.28;;
34573;SDS011;20809;49.594;8.734;2023-02-24T14:49:32;14.52;;;8.82;;
34573;SDS011;20809;49.594;8.734;2023-02-24T14:55:53;17.92;;;10.02;;
34573;SDS011;20809;49.594;8.734;2023-02-24T14:59:00;12.27;;;6.97;;
34573;SDS011;20809;49.594;8.734;2023-02-24T15:02:30;8.05;;;5.40;;
34573;SDS011;20809;49.594;8.734;2023-02-24T15:05:42;8.18;;;4.95;;
34573;SDS011;20809;49.594;8.734;2023-02-24T15:08:47;8.63;;;5.43;;
34573;SDS011;20809;49.594;8.734;2023-02-24T15:11:52;7.13;;;4.93;;
34573;SDS011;20809;49.594;8.734;2023-02-24T15:14:56;6.80;;;4.43;;
34573;SDS011;20809;49.594;8.734;2023-02-24T15:18:09;7.43;;;4.18;;
34573;SDS011;20809;49.594;8.734;2023-02-24T15:21:38;7.70;;;4.35;;
34573;SDS011;20809;49.594;8.734;2023-02-24T15:24:42;6.32;;;4.40;;
34573;SDS011;20809;49.594;8.734;2023-02-24T15:27:56;7.88;;;4.57;;
34573;SDS011;20809;49.594;8.734;2023-02-24T15:31:15;7.93;;;4.60;;
34573;SDS011;20809;49.594;8.734;2023-02-24T15:34:20;11.00;;;4.55;;
34573;SDS011;20809;49.594;8.734;2023-02-24T15:37:26;7.90;;;5.20;;
34573;SDS011;20809;49.594;8.734;2023-02-24T15:40:49;7.53;;;4.32;;
34573;SDS011;20809;49.594;8.734;2023-02-24T15:43:53;6.30;;;4.15;;
34573;SDS011;20809;49.594;8.734;2023-02-24T15:46:58;6.75;;;3.83;;
34573;SDS011;20809;49.594;8.734;2023-02-24T15:50:12;6.80;;;4.45;;
34573;SDS011;20809;49.594;8.734;2023-02-24T15:53:16;154.65;;;20.75;;
34573;SDS011;20809;49.594;8.734;2023-02-24T15:59:19;31.55;;;7.28;;
34573;SDS011;20809;49.594;8.734;2023-02-24T16:02:21;90.78;;;12.10;;
34573;SDS011;20809;49.594;8.734;2023-02-24T16:05:23;41.30;;;6.82;;
34573;SDS011;20809;49.594;8.734;2023-02-24T16:11:27;433.60;;;39.87;;
34573;SDS011;20809;49.594;8.734;2023-02-24T16:14:39;29.70;;;7.13;;
34573;SDS011;20809;49.594;8.734;2023-02-24T16:17:44;10.48;;;5.13;;
34573;SDS011;20809;49.594;8.734;2023-02-24T16:20:47;7.60;;;4.15;;
34573;SDS011;20809;49.594;8.734;2023-02-24T16:23:53;7.57;;;4.60;;
34573;SDS011;20809;49.594;8.734;2023-02-24T16:26:55;9.77;;;5.40;;
34573;SDS011;20809;49.594;8.734;2023-02-24T16:29:57;22.02;;;6.72;;
34573;SDS011;20809;49.594;8.734;2023-02-24T16:32:59;11.77;;;5.30;;
34573;SDS011;20809;49.594;8.734;2023-02-24T16:36:00;13.20;;;5.82;;
34573;SDS011;20809;49.594;8.734;2023-02-24T16:39:04;10.50;;;5.85;;
34573;SDS011;20809;49.594;8.734;2023-02-24T16:42:08;8.85;;;4.63;;
34573;SDS011;20809;49.594;8.734;2023-02-24T16:45:11;7.40;;;4.95;;
34573;SDS011;20809;49.594;8.734;2023-02-24T16:48:23;8.43;;;5.18;;
34573;SDS011;20809;49.594;8.734;2023-02-24T16:51:27;7.80;;;4.78;;
34573;SDS011;20809;49.594;8.734;2023-02-24T16:54:30;9.88;;;5.63;;
34573;SDS011;20809;49.594;8.734;2023-02-24T16:57:33;9.27;;;4.88;;
34573;SDS011;20809;49.594;8.734;2023-02-24T17:00:35;11.55;;;5.60;;
34573;SDS011;20809;49.594;8.734;2023-02-24T17:03:43;10.20;;;5.80;;
34573;SDS011;20809;49.594;8.734;2023-02-24T17:06:49;9.50;;;5.28;;
34573;SDS011;20809;49.594;8.734;2023-02-24T17:09:51;11.57;;;6.28;;
34573;SDS011;20809;49.594;8.734;2023-02-24T17:12:52;9.90;;;5.60;;
34573;SDS011;20809;49.594;8.734;2023-02-24T17:15:55;10.82;;;5.95;;
34573;SDS011;20809;49.594;8.734;2023-02-24T17:18:56;9.13;;;5.40;;
34573;SDS011;20809;49.594;8.734;2023-02-24T17:24:58;11.97;;;5.17;;
34573;SDS011;20809;49.594;8.734;2023-02-24T17:28:00;8.73;;;5.50;;
34573;SDS011;20809;49.594;8.734;2023-02-24T17:31:01;7.55;;;3.50;;
34573;SDS011;20809;49.594;8.734;2023-02-24T17:34:04;6.75;;;3.50;;
34573;SDS011;20809;49.594;8.734;2023-02-24T17:37:05;8.55;;;5.07;;
34573;SDS011;20809;49.594;8.734;2023-02-24T17:40:07;7.70;;;3.90;;
34573;SDS011;20809;49.594;8.734;2023-02-24T17:43:09;7.53;;;3.38;;
34573;SDS011;20809;49.594;8.734;2023-02-24T17:49:12;5.22;;;3.03;;
34573;SDS011;20809;49.594;8.734;2023-02-24T17:52:13;4.80;;;2.97;;
34573;SDS011;20809;49.594;8.734;2023-02-24T17:55:14;3.17;;;2.05;;
34573;SDS011;20809;49.594;8.734;2023-02-24T17:58:15;3.03;;;2.13;;
34573;SDS011;20809;49.594;8.734;2023-02-24T18:01:16;3.20;;;2.40;;
34573;SDS011;20809;49.594;8.734;2023-02-24T18:04:17;4.20;;;1.85;;
34573;SDS011;20809;49.594;8.734;2023-02-24T18:07:18;3.53;;;1.88;;
34573;SDS011;20809;49.594;8.734;2023-02-24T18:10:20;3.58;;;2.10;;
34573;SDS011;20809;49.594;8.734;2023-02-24T18:13:21;3.42;;;1.88;;
34573;SDS011;20809;49.594;8.734;2023-02-24T18:16:23;6.13;;;2.15;;
34573;SDS011;20809;49.594;8.734;2023-02-24T18:19:25;4.50;;;2.35;;
34573;SDS011;20809;49.594;8.734;2023-02-24T18:22:29;5.13;;;3.47;;
34573;SDS011;20809;49.594;8.734;2023-02-24T18:25:32;4.38;;;2.05;;
34573;SDS011;20809;49.594;8.734;2023-02-24T18:28:34;6.53;;;2.58;;
34573;SDS011;20809;49.594;8.734;2023-02-24T18:31:35;6.70;;;2.78;;
34573;SDS011;20809;49.594;8.734;2023-02-24T18:34:36;4.70;;;2.75;;
34573;SDS011;20809;49.594;8.734;2023-02-24T18:37:37;5.47;;;2.40;;
34573;SDS011;20809;49.594;8.734;2023-02-24T18:40:38;4.50;;;2.20;;
34573;SDS011;20809;49.594;8.734;2023-02-24T18:43:40;4.80;;;2.90;;
34573;SDS011;20809;49.594;8.734;2023-02-24T18:46:42;5.30;;;2.20;;
34573;SDS011;20809;49.594;8.734;2023-02-24T18:49:46;3.80;;;2.15;;
34573;SDS011;20809;49.594;8.734;2023-02-24T18:52:47;4.25;;;3.08;;
34573;SDS011;20809;49.594;8.734;2023-02-24T18:55:48;5.47;;;2.03;;
34573;SDS011;20809;49.594;8.734;2023-02-24T18:58:49;4.30;;;2.13;;
34573;SDS011;20809;49.594;8.734;2023-02-24T19:01:51;3.25;;;2.30;;
34573;SDS011;20809;49.594;8.734;2023-02-24T19:04:55;4.80;;;2.33;;
34573;SDS011;20809;49.594;8.734;2023-02-24T19:07:56;4.97;;;3.30;;
34573;SDS011;20809;49.594;8.734;2023-02-24T19:10:57;6.78;;;2.60;;
34573;SDS011;20809;49.594;8.734;2023-02-24T19:13:58;3.00;;;1.85;;
34573;SDS011;20809;49.594;8.734;2023-02-24T19:20:01;4.70;;;2.28;;
34573;SDS011;20809;49.594;8.734;2023-02-24T19:23:02;3.75;;;2.03;;
34573;SDS011;20809;49.594;8.734;2023-02-24T19:26:04;5.00;;;2.20;;
34573;SDS011;20809;49.594;8.734;2023-02-24T19:29:06;3.65;;;2.35;;
34573;SDS011;20809;49.594;8.734;2023-02-24T19:32:07;6.72;;;2.50;;
34573;SDS011;20809;49.594;8.734;2023-02-24T19:35:08;6.80;;;2.58;;
34573;SDS011;20809;49.594;8.734;2023-02-24T19:38:11;7.88;;;2.78;;
34573;SDS011;20809;49.594;8.734;2023-02-24T19:41:16;5.95;;;2.60;;
34573;SDS011;20809;49.594;8.734;2023-02-24T19:44:17;4.93;;;2.42;;
34573;SDS011;20809;49.594;8.734;2023-02-24T19:47:18;4.22;;;2.72;;
34573;SDS011;20809;49.594;8.734;2023-02-24T19:50:20;7.93;;;3.85;;
34573;SDS011;20809;49.594;8.734;2023-02-24T19:53:21;6.95;;;3.00;;
34573;SDS011;20809;49.594;8.734;2023-02-24T19:56:26;6.10;;;3.13;;
34573;SDS011;20809;49.594;8.734;2023-02-24T19:59:29;6.15;;;3.33;;
34573;SDS011;20809;49.594;8.734;2023-02-24T20:02:30;5.03;;;2.95;;
34573;SDS011;20809;49.594;8.734;2023-02-24T20:05:34;6.00;;;3.40;;
34573;SDS011;20809;49.594;8.734;2023-02-24T20:08:35;8.25;;;4.18;;
34573;SDS011;20809;49.594;8.734;2023-02-24T20:11:37;5.80;;;3.45;;
34573;SDS011;20809;49.594;8.734;2023-02-24T20:14:39;14.00;;;6.95;;
34573;SDS011;20809;49.594;8.734;2023-02-24T20:17:40;28.02;;;11.60;;
34573;SDS011;20809;49.594;8.734;2023-02-24T20:20:40;23.52;;;10.80;;
34573;SDS011;20809;49.594;8.734;2023-02-24T20:23:41;8.68;;;5.30;;
34573;SDS011;20809;49.594;8.734;2023-02-24T20:29:46;6.13;;;3.83;;
34573;SDS011;20809;49.594;8.734;2023-02-24T20:32:47;7.57;;;4.15;;
34573;SDS011;20809;49.594;8.734;2023-02-24T20:35:48;19.85;;;6.55;;